createdAt,value
2023-05-02T00:00:21.427Z,6.10
2023-05-02T00:02:51.400Z,5.50
2023-05-02T00:05:21.631Z,5.37
2023-05-02T00:07:54.220Z,6.00
2023-05-02T00:10:24.161Z,5.23
2023-05-02T00:12:53.916Z,5.53
2023-05-02T00:15:23.868Z,6.10
2023-05-02T00:17:53.676Z,5.50
2023-05-02T00:20:23.715Z,5.63
2023-05-02T00:22:56.112Z,6.43
2023-05-02T00:25:25.953Z,6.13
2023-05-02T00:27:55.762Z,7.97
2023-05-02T00:30:25.508Z,7.30
2023-05-02T00:32:55.984Z,8.63
2023-05-02T00:35:25.927Z,9.10
2023-05-02T00:37:58.395Z,12.10
2023-05-02T00:40:28.160Z,12.30
2023-05-02T00:42:57.950Z,13.70
2023-05-02T00:45:27.826Z,13.77
2023-05-02T00:47:57.754Z,13.93
2023-05-02T00:50:29.946Z,13.20
2023-05-02T00:53:03.995Z,15.23
2023-05-02T00:55:34.721Z,16.93
2023-05-02T00:58:06.951Z,16.47
2023-05-02T01:00:49.472Z,16.47
2023-05-02T01:03:35.365Z,18.07
2023-05-02T01:06:17.065Z,18.33
2023-05-02T01:08:55.282Z,18.33
2023-05-02T01:11:32.213Z,17.63
2023-05-02T01:14:04.793Z,17.00
2023-05-02T01:16:38.557Z,18.70
2023-05-02T01:19:12.346Z,16.93
2023-05-02T01:21:43.505Z,18.73
2023-05-02T01:24:25.147Z,18.63
2023-05-02T01:27:02.787Z,18.23
2023-05-02T01:29:36.497Z,19.80
2023-05-02T01:32:09.157Z,19.60
2023-05-02T01:34:41.444Z,22.43
2023-05-02T01:37:13.995Z,24.00
2023-05-02T01:39:45.553Z,22.60
2023-05-02T01:42:17.842Z,22.30
2023-05-02T01:44:53.624Z,23.97
2023-05-02T01:47:25.748Z,24.53
2023-05-02T01:49:56.375Z,23.67
2023-05-02T01:52:28.574Z,24.27
2023-05-02T01:55:00.501Z,24.57
2023-05-02T01:57:30.622Z,25.20
2023-05-02T02:00:05.081Z,24.93
2023-05-02T02:02:45.265Z,25.07
2023-05-02T02:05:18.918Z,27.37
2023-05-02T02:07:49.001Z,24.43
2023-05-02T02:10:19.007Z,24.30
2023-05-02T02:13:01.843Z,22.73
2023-05-02T02:15:38.552Z,22.57
2023-05-02T02:18:13.126Z,20.90
2023-05-02T02:20:46.894Z,21.47
2023-05-02T02:23:18.369Z,23.83
2023-05-02T02:25:49.074Z,23.20
2023-05-02T02:28:19.017Z,22.40
2023-05-02T02:30:51.595Z,22.70
2023-05-02T02:33:22.443Z,22.83
2023-05-02T02:36:01.121Z,22.00
2023-05-02T02:38:38.352Z,22.27
2023-05-02T02:41:17.384Z,22.70
2023-05-02T02:44:03.253Z,22.83
2023-05-02T02:46:48.063Z,23.87
2023-05-02T02:49:31.021Z,22.60
2023-05-02T02:52:08.394Z,22.27
2023-05-02T02:54:43.357Z,21.80
2023-05-02T02:57:20.402Z,22.70
2023-05-02T02:59:57.669Z,22.30
2023-05-02T03:02:34.031Z,21.03
2023-05-02T03:05:06.262Z,21.70
2023-05-02T03:07:37.070Z,21.43
2023-05-02T03:10:07.882Z,22.80
2023-05-02T03:12:40.149Z,21.53
2023-05-02T03:15:26.492Z,20.87
2023-05-02T03:17:59.006Z,21.73
2023-05-02T03:20:28.988Z,21.27
2023-05-02T03:22:58.749Z,23.07
2023-05-02T03:25:28.764Z,21.73
2023-05-02T03:28:00.379Z,23.47
2023-05-02T03:30:30.447Z,23.70
2023-05-02T03:33:04.997Z,22.70
2023-05-02T03:35:35.221Z,22.50
2023-05-02T03:38:05.365Z,22.40
2023-05-02T03:40:35.426Z,23.50
2023-05-02T03:43:05.528Z,22.50
2023-05-02T03:45:36.063Z,23.63
2023-05-02T03:48:08.620Z,22.87
2023-05-02T03:50:40.401Z,23.90
2023-05-02T03:53:10.781Z,22.80
2023-05-02T03:55:49.406Z,25.00
2023-05-02T03:58:27.334Z,24.37
2023-05-02T04:00:58.009Z,24.43
2023-05-02T04:03:32.558Z,23.63
2023-05-02T04:06:04.526Z,23.07
2023-05-02T04:08:34.631Z,22.93
2023-05-02T04:11:04.927Z,22.07
2023-05-02T04:13:34.697Z,21.30
2023-05-02T04:16:05.028Z,22.67
2023-05-02T04:18:40.284Z,23.13
2023-05-02T04:21:12.067Z,21.37
2023-05-02T04:23:42.579Z,20.90
2023-05-02T04:26:12.408Z,22.07
2023-05-02T04:28:54.636Z,20.27
2023-05-02T04:31:24.469Z,21.63
2023-05-02T04:33:57.871Z,19.60
2023-05-02T04:36:30.571Z,17.47
2023-05-02T04:39:00.364Z,17.13
2023-05-02T04:41:30.949Z,16.70
2023-05-02T04:44:05.720Z,15.50
2023-05-02T04:46:36.166Z,16.00
2023-05-02T04:49:08.679Z,14.33
2023-05-02T04:51:38.597Z,15.00
2023-05-02T04:54:08.362Z,14.97
2023-05-02T04:56:38.297Z,16.40
2023-05-02T04:59:08.162Z,5.63
2023-05-02T05:01:38.563Z,5.07
2023-05-02T05:04:12.995Z,4.27
2023-05-02T05:06:43.044Z,3.40
2023-05-02T05:09:13.454Z,4.60
2023-05-02T05:11:43.853Z,3.60
2023-05-02T05:14:13.626Z,3.47
2023-05-02T05:16:46.077Z,4.17
2023-05-02T05:19:18.673Z,3.80
2023-05-02T05:21:48.437Z,4.60
2023-05-02T05:24:20.761Z,4.40
2023-05-02T05:26:51.792Z,5.43
2023-05-02T05:29:21.779Z,6.80
2023-05-02T05:31:51.650Z,6.40
2023-05-02T05:34:26.902Z,6.70
2023-05-02T05:36:59.848Z,8.07
2023-05-02T05:39:35.772Z,8.13
2023-05-02T05:42:12.578Z,9.03
2023-05-02T05:44:43.390Z,9.03
2023-05-02T05:47:13.338Z,8.43
2023-05-02T05:49:45.818Z,8.90
2023-05-02T05:52:15.761Z,9.30
2023-05-02T05:54:45.529Z,9.10
2023-05-02T05:57:15.550Z,10.70
2023-05-02T05:59:46.195Z,10.00
2023-05-02T06:02:17.402Z,8.60
2023-05-02T06:04:49.855Z,8.13
2023-05-02T06:07:22.814Z,7.30
2023-05-02T06:09:52.541Z,6.33
2023-05-02T06:12:22.329Z,6.90
2023-05-02T06:14:52.838Z,6.70
2023-05-02T06:17:23.180Z,7.70
2023-05-02T06:19:55.656Z,7.77
2023-05-02T06:22:25.559Z,8.73
2023-05-02T06:24:56.328Z,8.50
2023-05-02T06:27:26.264Z,10.20
2023-05-02T06:29:56.602Z,12.17
2023-05-02T06:32:26.588Z,11.50
2023-05-02T06:34:58.985Z,11.13
2023-05-02T06:37:28.943Z,11.17
2023-05-02T06:39:58.974Z,10.33
2023-05-02T06:42:29.664Z,10.20
2023-05-02T06:44:59.501Z,11.10
2023-05-02T06:47:29.364Z,10.40
2023-05-02T06:50:02.095Z,11.37
2023-05-02T06:52:32.676Z,9.60
2023-05-02T06:55:02.512Z,9.93
2023-05-02T06:57:32.940Z,8.80
2023-05-02T07:00:03.561Z,8.30
2023-05-02T07:02:34.124Z,9.00
2023-05-02T07:05:07.317Z,8.97
2023-05-02T07:07:37.162Z,8.73
2023-05-02T07:10:07.675Z,7.70
2023-05-02T07:12:37.797Z,8.00
2023-05-02T07:15:09.348Z,6.33
2023-05-02T07:17:39.332Z,6.97
2023-05-02T07:20:13.961Z,7.20
2023-05-02T07:22:43.773Z,6.67
2023-05-02T07:25:13.705Z,6.03
2023-05-02T07:27:43.655Z,6.00
2023-05-02T07:30:14.785Z,5.70
2023-05-02T07:32:44.665Z,6.23
2023-05-02T07:35:17.225Z,5.73
2023-05-02T07:37:47.192Z,5.37
2023-05-02T07:40:17.529Z,5.70
2023-05-02T07:42:47.399Z,6.40
2023-05-02T07:45:17.452Z,5.93
2023-05-02T07:47:48.264Z,5.57
2023-05-02T07:50:21.067Z,5.80
2023-05-02T07:52:51.001Z,5.30
2023-05-02T07:55:21.646Z,5.40
2023-05-02T07:57:51.471Z,6.30
2023-05-02T08:00:22.286Z,4.80
2023-05-02T08:02:52.234Z,5.77
2023-05-02T08:05:25.042Z,5.07
2023-05-02T08:07:54.844Z,5.03
2023-05-02T08:10:24.708Z,5.20
2023-05-02T08:12:54.526Z,4.63
2023-05-02T08:15:24.428Z,4.70
2023-05-02T08:17:54.562Z,4.03
2023-05-02T08:20:27.074Z,4.63
2023-05-02T08:22:59.272Z,5.27
2023-05-02T08:25:30.636Z,4.50
2023-05-02T08:28:00.477Z,4.30
2023-05-02T08:30:30.441Z,5.33
2023-05-02T08:33:00.375Z,4.20
2023-05-02T08:35:34.407Z,3.57
2023-05-02T08:38:04.232Z,3.20
2023-05-02T08:40:42.693Z,4.40
2023-05-02T08:43:14.660Z,3.87
2023-05-02T08:45:46.178Z,3.90
2023-05-02T08:48:17.486Z,3.40
2023-05-02T08:50:51.238Z,4.37
2023-05-02T08:53:21.502Z,3.50
2023-05-02T08:55:52.142Z,3.67
2023-05-02T08:58:22.023Z,4.20
2023-05-02T09:00:53.268Z,4.43
2023-05-02T09:03:31.943Z,4.63
2023-05-02T09:06:12.951Z,4.00
2023-05-02T09:08:44.354Z,3.97
2023-05-02T09:11:16.134Z,4.20
2023-05-02T09:13:47.380Z,3.00
2023-05-02T09:16:18.738Z,3.60
2023-05-02T09:18:50.021Z,3.13
2023-05-02T09:21:24.246Z,3.60
2023-05-02T09:23:55.446Z,3.70
2023-05-02T09:26:29.549Z,3.77
2023-05-02T09:29:02.422Z,4.00
2023-05-02T09:34:13.073Z,3.77
2023-05-02T09:36:47.312Z,3.50
2023-05-02T09:39:19.575Z,4.80
2023-05-02T09:41:50.881Z,4.00
2023-05-02T09:44:22.330Z,2.90
2023-05-02T09:46:53.712Z,3.20
2023-05-02T09:49:42.533Z,4.40
2023-05-02T09:52:19.981Z,4.90
2023-05-02T09:54:50.849Z,3.90
2023-05-02T09:57:20.767Z,4.50
2023-05-02T09:59:58.340Z,5.00
2023-05-02T10:02:28.813Z,3.40
2023-05-02T10:05:00.410Z,3.97
2023-05-02T10:07:33.564Z,3.60
2023-05-02T10:10:05.633Z,3.33
2023-05-02T10:12:36.351Z,2.90
2023-05-02T10:15:07.628Z,2.90
2023-05-02T10:17:43.917Z,3.33
2023-05-02T10:20:17.274Z,3.33
2023-05-02T10:22:52.537Z,3.83
2023-05-02T10:25:22.622Z,4.47
2023-05-02T10:27:52.688Z,3.53
2023-05-02T10:30:23.012Z,3.00
2023-05-02T10:32:56.022Z,3.30
2023-05-02T10:35:27.697Z,4.47
2023-05-02T10:38:01.290Z,3.23
2023-05-02T10:40:31.696Z,3.70
2023-05-02T10:43:01.760Z,4.70
2023-05-02T10:45:35.876Z,4.07
2023-05-02T10:48:19.953Z,4.20
2023-05-02T10:50:51.550Z,3.40
2023-05-02T10:53:33.055Z,4.70
2023-05-02T10:56:15.700Z,4.30
2023-05-02T10:58:46.406Z,3.53
2023-05-02T11:01:40.038Z,3.10
2023-05-02T11:04:11.455Z,4.63
2023-05-02T11:07:16.951Z,3.40
2023-05-02T11:09:49.373Z,3.80
2023-05-02T11:12:47.263Z,2.73
2023-05-02T11:15:17.166Z,3.87
2023-05-02T11:18:03.174Z,3.40
2023-05-02T11:20:33.580Z,3.80
2023-05-02T11:23:26.619Z,4.80
2023-05-02T11:26:03.475Z,3.23
2023-05-02T11:28:48.553Z,2.60
2023-05-02T11:32:06.875Z,3.07
2023-05-02T11:34:47.363Z,3.97
2023-05-02T11:37:18.423Z,3.67
2023-05-02T11:39:49.487Z,3.10
2023-05-02T11:42:35.058Z,3.07
2023-05-02T11:45:05.034Z,3.70
2023-05-02T11:47:36.506Z,3.33
2023-05-02T11:50:08.071Z,3.43
2023-05-02T11:52:41.731Z,3.27
2023-05-02T11:55:14.586Z,3.57
2023-05-02T11:57:47.004Z,3.73
2023-05-02T12:00:18.142Z,4.07
2023-05-02T12:02:49.657Z,3.90
2023-05-02T12:05:31.674Z,3.30
2023-05-02T12:08:02.756Z,3.70
2023-05-02T12:10:42.032Z,3.60
2023-05-02T12:13:14.691Z,3.93
2023-05-02T12:15:44.847Z,3.20
2023-05-02T12:18:16.046Z,3.17
2023-05-02T12:20:46.839Z,3.03
2023-05-02T12:23:17.083Z,3.30
2023-05-02T12:25:46.885Z,3.80
2023-05-02T12:28:21.208Z,3.07
2023-05-02T12:30:52.362Z,3.43
2023-05-02T12:33:22.197Z,3.67
2023-05-02T12:35:53.014Z,3.50
2023-05-02T12:38:23.745Z,2.70
2023-05-02T12:40:57.866Z,3.30
2023-05-02T12:43:30.259Z,2.93
2023-05-02T12:46:12.935Z,2.70
2023-05-02T12:48:44.887Z,2.70
2023-05-02T12:51:25.556Z,2.90
2023-05-02T12:53:55.318Z,2.50
2023-05-02T12:56:27.766Z,3.40
2023-05-02T12:59:01.560Z,3.47
2023-05-02T13:01:31.667Z,3.13
2023-05-02T13:04:01.536Z,3.30
2023-05-02T13:06:31.589Z,2.90
2023-05-02T13:09:02.065Z,3.10
2023-05-02T13:11:31.793Z,3.33
2023-05-02T13:14:06.014Z,3.50
2023-05-02T13:16:37.555Z,3.30
2023-05-02T13:19:08.591Z,3.30
2023-05-02T13:21:38.328Z,3.97
2023-05-02T13:24:08.954Z,3.00
2023-05-02T13:26:38.696Z,3.50
2023-05-02T13:29:12.780Z,3.93
2023-05-02T13:31:42.827Z,3.83
2023-05-02T13:34:12.716Z,3.30
2023-05-02T13:36:46.508Z,3.00
2023-05-02T13:39:16.726Z,3.33
2023-05-02T13:41:46.582Z,3.67
2023-05-02T13:44:18.898Z,4.20
2023-05-02T13:46:48.697Z,2.80
2023-05-02T13:49:19.310Z,3.10
2023-05-02T13:51:49.970Z,3.27
2023-05-02T13:54:19.993Z,3.40
2023-05-02T13:56:49.766Z,2.63
2023-05-02T13:59:22.094Z,3.00
2023-05-02T14:01:52.322Z,2.90
2023-05-02T14:04:23.533Z,2.67
2023-05-02T14:06:53.545Z,2.50
2023-05-02T14:09:23.511Z,2.70
2023-05-02T14:11:53.231Z,2.97
2023-05-02T14:14:25.609Z,2.27
2023-05-02T14:16:55.425Z,2.60
2023-05-02T14:19:25.182Z,2.37
2023-05-02T14:21:54.917Z,2.90
2023-05-02T14:24:24.678Z,2.07
2023-05-02T14:26:54.405Z,2.67
2023-05-02T14:29:26.886Z,2.30
2023-05-02T14:31:56.675Z,2.60
2023-05-02T14:34:27.352Z,2.47
2023-05-02T14:36:57.107Z,2.90
2023-05-02T14:39:27.783Z,2.70
2023-05-02T14:41:57.510Z,2.60
2023-05-02T14:44:29.802Z,2.40
2023-05-02T14:46:59.660Z,2.50
2023-05-02T14:49:30.439Z,3.20
2023-05-02T14:52:00.378Z,2.87
2023-05-02T14:54:31.229Z,2.33
2023-05-02T14:57:02.355Z,2.33
2023-05-02T14:59:36.228Z,2.13
2023-05-02T15:02:06.147Z,2.40
2023-05-02T15:04:36.035Z,2.00
2023-05-02T15:07:06.402Z,2.20
2023-05-02T15:09:36.265Z,1.83
2023-05-02T15:12:06.280Z,2.20
2023-05-02T15:14:38.617Z,1.87
2023-05-02T15:17:08.433Z,1.90
2023-05-02T15:19:38.266Z,2.00
2023-05-02T15:22:07.994Z,2.43
2023-05-02T15:24:37.744Z,2.10
2023-05-02T15:27:09.597Z,1.97
2023-05-02T15:29:42.033Z,1.70
2023-05-02T15:32:11.944Z,2.00
2023-05-02T15:34:41.785Z,1.77
2023-05-02T15:37:11.507Z,1.70
2023-05-02T15:39:41.339Z,3.10
2023-05-02T15:42:11.136Z,1.90
2023-05-02T15:44:43.467Z,2.60
2023-05-02T15:47:13.196Z,1.93
2023-05-02T15:49:43.525Z,2.10
2023-05-02T15:52:13.317Z,1.87
2023-05-02T15:54:43.222Z,1.40
2023-05-02T15:57:13.020Z,2.53
2023-05-02T15:59:45.537Z,2.27
2023-05-02T16:02:15.499Z,1.87
2023-05-02T16:04:45.624Z,1.60
2023-05-02T16:07:15.402Z,1.83
2023-05-02T16:09:45.140Z,2.10
2023-05-02T16:12:14.865Z,1.80
2023-05-02T16:14:47.220Z,1.80
2023-05-02T16:17:16.948Z,2.40
2023-05-02T16:19:46.754Z,1.67
2023-05-02T16:22:16.492Z,2.40
2023-05-02T16:24:46.219Z,1.80
2023-05-02T16:27:15.982Z,1.80
2023-05-02T16:29:48.704Z,2.50
2023-05-02T16:32:18.548Z,1.77
2023-05-02T16:34:48.276Z,1.87
2023-05-02T16:37:17.979Z,1.90
2023-05-02T16:39:47.785Z,1.93
2023-05-02T16:42:17.506Z,2.43
2023-05-02T16:44:50.126Z,3.07
2023-05-02T16:47:19.881Z,1.87
2023-05-02T16:49:49.659Z,1.70
2023-05-02T16:52:19.365Z,2.30
2023-05-02T16:54:49.159Z,1.70
2023-05-02T16:57:19.993Z,2.37
2023-05-02T16:59:54.933Z,2.17
2023-05-02T17:02:24.974Z,2.20
2023-05-02T17:04:54.947Z,2.43
2023-05-02T17:07:24.780Z,2.17
2023-05-02T17:09:54.585Z,2.17
2023-05-02T17:12:25.941Z,1.90
2023-05-02T17:14:58.327Z,1.80
2023-05-02T17:17:28.097Z,1.80
2023-05-02T17:19:57.976Z,2.03
2023-05-02T17:22:28.214Z,1.60
2023-05-02T17:24:57.987Z,1.70
2023-05-02T17:27:28.788Z,2.20
2023-05-02T17:30:01.621Z,1.70
2023-05-02T17:32:33.888Z,1.50
2023-05-02T17:35:03.614Z,1.60
2023-05-02T17:37:33.657Z,2.20
2023-05-02T17:40:05.205Z,4.17
2023-05-02T17:42:35.171Z,2.00
2023-05-02T17:45:08.566Z,1.83
2023-05-02T17:47:38.398Z,2.53
2023-05-02T17:50:09.659Z,3.00
2023-05-02T17:52:39.694Z,2.30
2023-05-02T17:55:11.254Z,1.93
2023-05-02T17:57:41.050Z,2.57
2023-05-02T18:00:14.807Z,1.90
2023-05-02T18:02:44.739Z,1.93
2023-05-02T18:05:14.705Z,2.17
2023-05-02T18:07:44.490Z,2.63
2023-05-02T18:10:14.964Z,1.67
2023-05-02T18:12:44.864Z,1.90
2023-05-02T18:15:17.909Z,1.60
2023-05-02T18:17:48.536Z,1.60
2023-05-02T18:20:18.647Z,1.17
2023-05-02T18:22:48.471Z,1.70
2023-05-02T18:25:18.271Z,1.40
2023-05-02T18:27:48.025Z,1.90
2023-05-02T18:30:20.577Z,2.27
2023-05-02T18:32:50.522Z,1.77
2023-05-02T18:35:20.869Z,1.40
2023-05-02T18:37:50.624Z,1.63
2023-05-02T18:40:21.024Z,1.43
2023-05-02T18:42:50.792Z,1.93
2023-05-02T18:45:23.102Z,1.77
2023-05-02T18:47:53.810Z,1.73
2023-05-02T18:50:23.739Z,1.80
2023-05-02T18:52:53.476Z,1.43
2023-05-02T18:55:25.279Z,1.90
2023-05-02T18:57:55.293Z,1.63
2023-05-02T19:00:30.306Z,1.60
2023-05-02T19:03:00.381Z,1.60
2023-05-02T19:05:30.425Z,2.23
2023-05-02T19:08:00.153Z,1.47
2023-05-02T19:10:29.972Z,1.77
2023-05-02T19:12:59.718Z,1.57
2023-05-02T19:15:32.310Z,2.10
2023-05-02T19:18:02.257Z,1.20
2023-05-02T19:20:32.448Z,1.70
2023-05-02T19:23:18.290Z,1.10
2023-05-02T19:25:49.337Z,1.43
2023-05-02T19:28:19.860Z,1.97
2023-05-02T19:30:52.557Z,1.80
2023-05-02T19:33:22.326Z,1.53
2023-05-02T19:35:54.306Z,2.33
2023-05-02T19:38:24.186Z,1.60
2023-05-02T19:40:56.885Z,1.40
2023-05-02T19:43:26.646Z,2.07
2023-05-02T19:45:59.587Z,1.60
2023-05-02T19:48:29.393Z,1.63
2023-05-02T19:50:59.235Z,1.57
2023-05-02T19:53:30.774Z,1.57
2023-05-02T19:56:00.743Z,1.60
2023-05-02T19:58:31.293Z,1.50
2023-05-02T20:01:03.839Z,1.57
2023-05-02T20:03:34.903Z,1.43
2023-05-02T20:06:05.086Z,1.60
2023-05-02T20:08:35.179Z,1.80
2023-05-02T20:11:05.331Z,1.43
2023-05-02T20:13:35.205Z,1.40
2023-05-02T20:16:07.913Z,1.50
2023-05-02T20:18:45.724Z,2.07
2023-05-02T20:21:16.586Z,2.37
2023-05-02T20:23:46.380Z,2.00
2023-05-02T20:26:18.052Z,2.23
2023-05-02T20:28:47.982Z,1.93
2023-05-02T20:31:20.685Z,2.10
2023-05-02T20:33:50.610Z,1.80
2023-05-02T20:36:21.067Z,1.87
2023-05-02T20:38:50.872Z,1.60
2023-05-02T20:41:21.541Z,1.57
2023-05-02T20:43:51.889Z,1.30
2023-05-02T20:46:24.338Z,1.60
2023-05-02T20:48:55.029Z,2.00
2023-05-02T20:51:24.829Z,1.57
2023-05-02T20:53:54.674Z,1.53
2023-05-02T20:56:24.442Z,1.53
2023-05-02T20:58:54.256Z,1.70
2023-05-02T21:01:26.760Z,1.60
2023-05-02T21:03:57.434Z,2.03
2023-05-02T21:06:27.309Z,1.97
2023-05-02T21:08:58.538Z,1.50
2023-05-02T21:11:28.380Z,2.30
2023-05-02T21:13:58.114Z,1.47
2023-05-02T21:16:30.477Z,1.40
2023-05-02T21:19:00.251Z,1.70
2023-05-02T21:21:29.992Z,2.07
2023-05-02T21:24:00.282Z,1.50
2023-05-02T21:26:30.809Z,1.70
2023-05-02T21:29:00.562Z,1.57
2023-05-02T21:31:34.966Z,1.50
2023-05-02T21:34:04.864Z,1.80
2023-05-02T21:36:34.686Z,1.20
2023-05-02T21:39:05.464Z,2.30
2023-05-02T21:41:35.210Z,1.47
2023-05-02T21:44:05.022Z,1.53
2023-05-02T21:46:37.347Z,1.93
2023-05-02T21:49:07.203Z,1.80
2023-05-02T21:51:38.818Z,2.00
2023-05-02T21:54:08.717Z,2.03
2023-05-02T21:56:38.498Z,1.97
2023-05-02T21:59:08.272Z,2.07
2023-05-02T22:01:40.618Z,1.60
2023-05-02T22:04:10.382Z,2.20
2023-05-02T22:06:40.189Z,2.33
2023-05-02T22:09:10.500Z,2.47
2023-05-02T22:11:40.306Z,2.40
2023-05-02T22:14:10.596Z,1.70
2023-05-02T22:16:43.367Z,2.33
2023-05-02T22:19:14.694Z,2.23
2023-05-02T22:21:44.518Z,1.53
2023-05-02T22:24:14.303Z,1.70
2023-05-02T22:26:44.092Z,1.70
2023-05-02T22:29:13.834Z,1.93
2023-05-02T22:31:47.338Z,2.07
2023-05-02T22:34:17.119Z,1.70
2023-05-02T22:36:46.858Z,2.03
2023-05-02T22:39:16.920Z,2.20
2023-05-02T22:41:47.079Z,1.70
2023-05-02T22:44:16.920Z,2.40
2023-05-02T22:46:49.410Z,1.90
2023-05-02T22:49:19.958Z,2.43
2023-05-02T22:51:49.763Z,2.07
2023-05-02T22:54:19.532Z,1.90
2023-05-02T22:56:49.710Z,2.70
2023-05-02T22:59:19.649Z,2.07
2023-05-02T23:01:52.057Z,2.33
2023-05-02T23:04:21.920Z,2.83
2023-05-02T23:06:51.774Z,2.30
2023-05-02T23:09:21.645Z,2.40
2023-05-02T23:11:51.597Z,1.73
2023-05-02T23:14:23.090Z,2.37
2023-05-02T23:16:56.670Z,2.30
2023-05-02T23:19:26.466Z,3.20
2023-05-02T23:21:56.172Z,2.20
2023-05-02T23:24:26.028Z,2.20
2023-05-02T23:26:55.813Z,2.30
2023-05-02T23:29:25.845Z,2.43
2023-05-02T23:31:58.479Z,2.20
2023-05-02T23:34:28.498Z,1.90
2023-05-02T23:36:58.286Z,2.27
2023-05-02T23:39:28.946Z,2.00
2023-05-02T23:41:58.710Z,2.30
2023-05-02T23:44:28.466Z,2.20
2023-05-02T23:47:01.080Z,2.43
2023-05-02T23:49:30.906Z,2.60
2023-05-02T23:52:02.788Z,2.60
2023-05-02T23:54:33.694Z,2.00
2023-05-02T23:57:03.634Z,2.00
2023-05-02T23:59:33.398Z,2.70
